createdAt,value
2023-12-26T00:00:18.217Z,0.17
2023-12-26T00:10:18.153Z,0.21
2023-12-26T00:20:18.168Z,0.2
2023-12-26T00:30:18.295Z,0.23
2023-12-26T00:40:18.239Z,0.2
2023-12-26T00:50:18.216Z,0.28
2023-12-26T01:00:18.274Z,0.33
2023-12-26T01:10:18.206Z,0.26
2023-12-26T01:20:18.206Z,0.3
2023-12-26T01:30:18.320Z,0.25
2023-12-26T01:40:18.385Z,0.2
2023-12-26T01:50:18.169Z,0.15
2023-12-26T02:00:18.278Z,0.21
2023-12-26T02:10:18.258Z,0.19
2023-12-26T02:20:18.269Z,0.23
2023-12-26T02:30:18.418Z,0.22
2023-12-26T02:40:18.213Z,0.21
2023-12-26T02:50:18.351Z,0.11
2023-12-26T03:00:18.147Z,0.05
2023-12-26T03:10:18.298Z,-0.08
2023-12-26T03:20:18.300Z,-0.19
2023-12-26T03:30:18.383Z,-0.09
2023-12-26T03:40:18.347Z,-0.22
2023-12-26T03:50:18.390Z,-0.23
2023-12-26T04:00:18.302Z,-0.34
2023-12-26T04:10:18.180Z,-0.39
2023-12-26T04:20:18.331Z,-0.46
2023-12-26T04:30:18.360Z,-0.55
2023-12-26T04:40:18.367Z,-0.54
2023-12-26T04:50:18.325Z,-0.72
2023-12-26T05:00:18.417Z,-0.63
2023-12-26T05:10:18.406Z,-0.52
2023-12-26T05:20:25.889Z,-0.49
2023-12-26T05:30:18.537Z,-0.5
2023-12-26T05:40:18.382Z,-0.53
2023-12-26T05:50:18.456Z,-0.58
2023-12-26T06:00:18.428Z,-0.51
2023-12-26T06:10:18.408Z,-0.44
2023-12-26T06:20:18.501Z,-0.42
2023-12-26T06:30:18.500Z,-0.27
2023-12-26T06:40:18.337Z,-0.17
2023-12-26T06:50:18.415Z,-0.02
2023-12-26T07:00:18.468Z,0.03
2023-12-26T07:10:18.400Z,0.17
2023-12-26T07:20:18.416Z,0.11
2023-12-26T07:30:18.485Z,0.1
2023-12-26T07:40:18.510Z,0.19
2023-12-26T07:50:18.491Z,0.28
2023-12-26T08:00:18.381Z,0.63
2023-12-26T08:10:18.437Z,1.07
2023-12-26T08:20:18.401Z,1.53
2023-12-26T08:30:18.532Z,1.88
2023-12-26T08:40:18.539Z,2.56
2023-12-26T08:50:18.472Z,4.19
2023-12-26T09:00:18.536Z,4.46
2023-12-26T09:10:18.557Z,4.84
2023-12-26T09:20:18.542Z,5.66
2023-12-26T09:30:18.753Z,6.08
2023-12-26T09:40:18.480Z,7.6
2023-12-26T09:50:18.560Z,8.2
2023-12-26T10:00:18.598Z,8.44
2023-12-26T10:10:18.452Z,8.49
2023-12-26T10:20:18.612Z,9.27
2023-12-26T10:30:18.558Z,9.62
2023-12-26T10:40:18.481Z,10.17
2023-12-26T10:50:18.323Z,10.72
2023-12-26T11:00:18.468Z,10.8
2023-12-26T11:10:18.286Z,9.68
2023-12-26T11:20:18.531Z,9.49
2023-12-26T11:30:18.560Z,9.56
2023-12-26T11:40:18.550Z,9.72
2023-12-26T11:50:18.312Z,9.79
2023-12-26T12:00:18.524Z,10.09
2023-12-26T12:10:18.470Z,10.42
2023-12-26T12:20:18.376Z,10.84
2023-12-26T12:30:18.465Z,11.38
2023-12-26T12:40:18.445Z,11.45
2023-12-26T12:50:18.370Z,11.56
2023-12-26T13:00:18.591Z,11.2
2023-12-26T13:10:18.406Z,10.76
2023-12-26T13:20:18.499Z,10.79
2023-12-26T13:30:18.435Z,10.99
2023-12-26T13:40:18.529Z,11
2023-12-26T13:50:18.248Z,10.92
2023-12-26T14:00:18.346Z,10.58
2023-12-26T14:10:19.700Z,10.21
2023-12-26T14:20:18.361Z,9.89
2023-12-26T14:30:18.448Z,9.44
2023-12-26T14:40:18.248Z,9.07
2023-12-26T15:00:18.254Z,8.08
2023-12-26T15:10:18.371Z,7.82
2023-12-26T15:20:18.348Z,7.58
2023-12-26T15:30:18.502Z,7.29
2023-12-26T15:40:18.458Z,6.9
2023-12-26T15:50:18.497Z,6.54
2023-12-26T16:00:18.414Z,6.31
2023-12-26T16:10:18.242Z,6.06
2023-12-26T16:20:18.302Z,5.63
2023-12-26T16:30:18.384Z,5.37
2023-12-26T16:40:18.389Z,5.17
2023-12-26T16:50:18.442Z,5.04
2023-12-26T17:00:18.417Z,4.54
2023-12-26T17:10:18.225Z,4.32
2023-12-26T17:20:18.375Z,4.24
2023-12-26T17:30:18.380Z,3.86
2023-12-26T17:40:18.241Z,3.36
2023-12-26T17:50:18.346Z,3.32
2023-12-26T18:00:18.450Z,2.99
2023-12-26T18:10:18.380Z,2.71
2023-12-26T18:20:18.281Z,2.44
2023-12-26T18:30:18.429Z,2.18
2023-12-26T18:40:18.379Z,1.95
2023-12-26T18:50:18.266Z,1.72
2023-12-26T19:00:18.345Z,1.73
2023-12-26T19:10:18.288Z,1.58
2023-12-26T19:20:18.418Z,1.12
2023-12-26T19:30:18.489Z,1.25
2023-12-26T19:50:18.460Z,1
2023-12-26T20:00:18.430Z,0.91
2023-12-26T20:10:18.444Z,0.61
2023-12-26T20:20:18.574Z,0.49
2023-12-26T20:30:18.522Z,0.34
2023-12-26T20:40:18.444Z,0.37
2023-12-26T20:50:18.588Z,0.2
2023-12-26T21:00:18.534Z,0.19
2023-12-26T21:10:18.461Z,0.05
2023-12-26T21:20:18.486Z,0.09
2023-12-26T21:30:18.528Z,-0.12
2023-12-26T21:40:18.561Z,-0.13
2023-12-26T21:50:18.634Z,-0.25
2023-12-26T22:00:18.580Z,-0.27
2023-12-26T22:10:18.516Z,-0.37
2023-12-26T22:20:18.532Z,-0.33
2023-12-26T22:30:18.645Z,-0.47
2023-12-26T22:40:18.560Z,-0.63
2023-12-26T22:50:18.546Z,-0.67
2023-12-26T23:00:18.583Z,-0.72
2023-12-26T23:10:18.756Z,-0.75
2023-12-26T23:20:18.569Z,-0.62
2023-12-26T23:40:18.597Z,-0.72
2023-12-26T23:50:18.641Z,-0.87
